sensor_id;sensor_type;location;lat;lon;timestamp;P1;durP1;ratioP1;P2;durP2;ratioP2
17618;SDS011;8928;51.678;6.074;2023-05-29T00:02:02;15.87;;;5.73;;
17618;SDS011;8928;51.678;6.074;2023-05-29T00:04:51;19.13;;;5.97;;
17618;SDS011;8928;51.678;6.074;2023-05-29T00:07:39;22.87;;;6.13;;
17618;SDS011;8928;51.678;6.074;2023-05-29T00:10:26;17.77;;;5.70;;
17618;SDS011;8928;51.678;6.074;2023-05-29T00:13:13;22.87;;;5.40;;
17618;SDS011;8928;51.678;6.074;2023-05-29T00:16:00;18.63;;;4.70;;
17618;SDS011;8928;51.678;6.074;2023-05-29T00:18:48;22.27;;;4.80;;
17618;SDS011;8928;51.678;6.074;2023-05-29T00:21:38;15.07;;;4.27;;
17618;SDS011;8928;51.678;6.074;2023-05-29T00:24:25;16.77;;;4.47;;
17618;SDS011;8928;51.678;6.074;2023-05-29T00:27:12;14.07;;;4.50;;
17618;SDS011;8928;51.678;6.074;2023-05-29T00:30:00;17.20;;;3.97;;
17618;SDS011;8928;51.678;6.074;2023-05-29T00:32:48;19.83;;;3.60;;
17618;SDS011;8928;51.678;6.074;2023-05-29T00:35:35;18.90;;;3.70;;
17618;SDS011;8928;51.678;6.074;2023-05-29T00:38:23;18.13;;;3.83;;
17618;SDS011;8928;51.678;6.074;2023-05-29T00:41:13;20.30;;;3.87;;
17618;SDS011;8928;51.678;6.074;2023-05-29T00:44:01;14.93;;;3.43;;
17618;SDS011;8928;51.678;6.074;2023-05-29T00:46:49;17.83;;;3.80;;
17618;SDS011;8928;51.678;6.074;2023-05-29T00:49:39;17.00;;;3.67;;
17618;SDS011;8928;51.678;6.074;2023-05-29T00:52:26;16.27;;;3.70;;
17618;SDS011;8928;51.678;6.074;2023-05-29T00:55:15;20.27;;;3.80;;
17618;SDS011;8928;51.678;6.074;2023-05-29T00:58:02;21.83;;;3.60;;
17618;SDS011;8928;51.678;6.074;2023-05-29T01:00:51;17.97;;;3.40;;
17618;SDS011;8928;51.678;6.074;2023-05-29T01:03:39;19.93;;;3.50;;
17618;SDS011;8928;51.678;6.074;2023-05-29T01:06:26;18.70;;;2.97;;
17618;SDS011;8928;51.678;6.074;2023-05-29T01:09:13;20.77;;;3.40;;
17618;SDS011;8928;51.678;6.074;2023-05-29T01:12:07;22.27;;;3.27;;
17618;SDS011;8928;51.678;6.074;2023-05-29T01:15:11;18.23;;;3.23;;
17618;SDS011;8928;51.678;6.074;2023-05-29T01:18:10;20.63;;;3.20;;
17618;SDS011;8928;51.678;6.074;2023-05-29T01:21:06;21.90;;;3.10;;
17618;SDS011;8928;51.678;6.074;2023-05-29T01:24:02;24.83;;;3.60;;
17618;SDS011;8928;51.678;6.074;2023-05-29T01:26:55;24.27;;;3.27;;
17618;SDS011;8928;51.678;6.074;2023-05-29T01:29:46;23.97;;;3.30;;
17618;SDS011;8928;51.678;6.074;2023-05-29T01:32:35;19.23;;;3.20;;
17618;SDS011;8928;51.678;6.074;2023-05-29T01:35:23;20.73;;;3.30;;
17618;SDS011;8928;51.678;6.074;2023-05-29T01:38:11;22.83;;;3.40;;
17618;SDS011;8928;51.678;6.074;2023-05-29T01:40:58;20.07;;;3.30;;
17618;SDS011;8928;51.678;6.074;2023-05-29T01:43:47;18.13;;;3.37;;
17618;SDS011;8928;51.678;6.074;2023-05-29T01:46:35;25.43;;;3.17;;
17618;SDS011;8928;51.678;6.074;2023-05-29T01:49:24;18.67;;;3.40;;
17618;SDS011;8928;51.678;6.074;2023-05-29T01:52:12;23.23;;;2.90;;
17618;SDS011;8928;51.678;6.074;2023-05-29T01:54:59;20.77;;;3.20;;
17618;SDS011;8928;51.678;6.074;2023-05-29T01:57:46;23.77;;;3.43;;
17618;SDS011;8928;51.678;6.074;2023-05-29T02:00:35;18.07;;;2.93;;
17618;SDS011;8928;51.678;6.074;2023-05-29T02:03:23;19.63;;;3.07;;
17618;SDS011;8928;51.678;6.074;2023-05-29T02:06:10;24.70;;;3.77;;
17618;SDS011;8928;51.678;6.074;2023-05-29T02:08:57;18.50;;;2.87;;
17618;SDS011;8928;51.678;6.074;2023-05-29T02:11:44;16.23;;;3.10;;
17618;SDS011;8928;51.678;6.074;2023-05-29T02:14:31;22.30;;;3.30;;
17618;SDS011;8928;51.678;6.074;2023-05-29T02:17:19;19.87;;;3.17;;
17618;SDS011;8928;51.678;6.074;2023-05-29T02:20:07;27.27;;;3.30;;
17618;SDS011;8928;51.678;6.074;2023-05-29T02:22:56;26.83;;;3.30;;
17618;SDS011;8928;51.678;6.074;2023-05-29T02:25:43;18.33;;;3.27;;
17618;SDS011;8928;51.678;6.074;2023-05-29T02:28:30;22.40;;;2.97;;
17618;SDS011;8928;51.678;6.074;2023-05-29T02:31:17;19.17;;;3.00;;
17618;SDS011;8928;51.678;6.074;2023-05-29T02:34:05;21.60;;;3.23;;
17618;SDS011;8928;51.678;6.074;2023-05-29T02:36:52;18.43;;;3.07;;
17618;SDS011;8928;51.678;6.074;2023-05-29T02:39:39;18.03;;;2.93;;
17618;SDS011;8928;51.678;6.074;2023-05-29T02:42:26;27.20;;;3.57;;
17618;SDS011;8928;51.678;6.074;2023-05-29T02:45:14;24.33;;;3.40;;
17618;SDS011;8928;51.678;6.074;2023-05-29T02:48:01;20.77;;;3.10;;
17618;SDS011;8928;51.678;6.074;2023-05-29T02:50:50;21.13;;;2.90;;
17618;SDS011;8928;51.678;6.074;2023-05-29T02:53:37;24.13;;;3.50;;
17618;SDS011;8928;51.678;6.074;2023-05-29T02:56:24;16.80;;;3.03;;
17618;SDS011;8928;51.678;6.074;2023-05-29T02:59:11;21.60;;;3.60;;
17618;SDS011;8928;51.678;6.074;2023-05-29T03:01:58;26.40;;;3.40;;
17618;SDS011;8928;51.678;6.074;2023-05-29T03:04:45;22.17;;;2.97;;
17618;SDS011;8928;51.678;6.074;2023-05-29T03:07:36;21.37;;;3.00;;
17618;SDS011;8928;51.678;6.074;2023-05-29T03:10:23;31.33;;;3.27;;
17618;SDS011;8928;51.678;6.074;2023-05-29T03:13:10;25.53;;;3.20;;
17618;SDS011;8928;51.678;6.074;2023-05-29T03:15:57;22.53;;;3.27;;
17618;SDS011;8928;51.678;6.074;2023-05-29T03:18:44;32.17;;;3.57;;
17618;SDS011;8928;51.678;6.074;2023-05-29T03:21:32;22.47;;;3.43;;
17618;SDS011;8928;51.678;6.074;2023-05-29T03:24:20;25.50;;;3.57;;
17618;SDS011;8928;51.678;6.074;2023-05-29T03:27:09;21.63;;;3.00;;
17618;SDS011;8928;51.678;6.074;2023-05-29T03:29:56;18.60;;;3.10;;
17618;SDS011;8928;51.678;6.074;2023-05-29T03:32:43;23.70;;;3.37;;
17618;SDS011;8928;51.678;6.074;2023-05-29T03:35:30;28.27;;;3.23;;
17618;SDS011;8928;51.678;6.074;2023-05-29T03:38:17;25.00;;;3.63;;
17618;SDS011;8928;51.678;6.074;2023-05-29T03:41:06;26.23;;;3.23;;
17618;SDS011;8928;51.678;6.074;2023-05-29T03:43:53;19.17;;;3.33;;
17618;SDS011;8928;51.678;6.074;2023-05-29T03:46:40;26.00;;;3.73;;
17618;SDS011;8928;51.678;6.074;2023-05-29T03:49:27;23.73;;;3.70;;
17618;SDS011;8928;51.678;6.074;2023-05-29T03:52:14;26.67;;;3.87;;
17618;SDS011;8928;51.678;6.074;2023-05-29T03:55:01;26.00;;;3.40;;
17618;SDS011;8928;51.678;6.074;2023-05-29T03:57:50;27.17;;;3.30;;
17618;SDS011;8928;51.678;6.074;2023-05-29T04:00:37;22.27;;;3.47;;
17618;SDS011;8928;51.678;6.074;2023-05-29T04:03:24;27.47;;;4.00;;
17618;SDS011;8928;51.678;6.074;2023-05-29T04:06:11;24.40;;;3.27;;
17618;SDS011;8928;51.678;6.074;2023-05-29T04:08:58;21.60;;;3.30;;
17618;SDS011;8928;51.678;6.074;2023-05-29T04:11:45;26.03;;;3.83;;
17618;SDS011;8928;51.678;6.074;2023-05-29T04:14:33;27.63;;;3.50;;
17618;SDS011;8928;51.678;6.074;2023-05-29T04:17:20;27.20;;;3.53;;
17618;SDS011;8928;51.678;6.074;2023-05-29T04:20:08;22.53;;;3.27;;
17618;SDS011;8928;51.678;6.074;2023-05-29T04:22:56;27.53;;;3.47;;
17618;SDS011;8928;51.678;6.074;2023-05-29T04:25:43;22.97;;;3.23;;
17618;SDS011;8928;51.678;6.074;2023-05-29T04:28:30;22.27;;;3.10;;
17618;SDS011;8928;51.678;6.074;2023-05-29T04:31:18;31.50;;;3.43;;
17618;SDS011;8928;51.678;6.074;2023-05-29T04:34:08;18.30;;;3.17;;
17618;SDS011;8928;51.678;6.074;2023-05-29T04:36:55;20.77;;;3.17;;
17618;SDS011;8928;51.678;6.074;2023-05-29T04:39:43;26.90;;;3.50;;
17618;SDS011;8928;51.678;6.074;2023-05-29T04:42:30;22.70;;;3.10;;
17618;SDS011;8928;51.678;6.074;2023-05-29T04:45:19;22.87;;;3.83;;
17618;SDS011;8928;51.678;6.074;2023-05-29T04:48:08;22.17;;;3.30;;
17618;SDS011;8928;51.678;6.074;2023-05-29T04:50:55;23.90;;;3.50;;
17618;SDS011;8928;51.678;6.074;2023-05-29T04:53:44;21.30;;;3.17;;
17618;SDS011;8928;51.678;6.074;2023-05-29T04:56:32;21.93;;;3.00;;
17618;SDS011;8928;51.678;6.074;2023-05-29T04:59:19;23.77;;;3.43;;
17618;SDS011;8928;51.678;6.074;2023-05-29T05:02:06;25.53;;;3.77;;
17618;SDS011;8928;51.678;6.074;2023-05-29T05:04:54;25.27;;;3.37;;
17618;SDS011;8928;51.678;6.074;2023-05-29T05:07:42;29.57;;;3.73;;
17618;SDS011;8928;51.678;6.074;2023-05-29T05:10:29;23.40;;;3.43;;
17618;SDS011;8928;51.678;6.074;2023-05-29T05:13:16;23.60;;;3.47;;
17618;SDS011;8928;51.678;6.074;2023-05-29T05:16:03;26.77;;;3.33;;
17618;SDS011;8928;51.678;6.074;2023-05-29T05:18:50;20.93;;;3.03;;
17618;SDS011;8928;51.678;6.074;2023-05-29T05:21:39;25.80;;;3.63;;
17618;SDS011;8928;51.678;6.074;2023-05-29T05:24:26;22.33;;;3.10;;
17618;SDS011;8928;51.678;6.074;2023-05-29T05:27:13;17.50;;;2.90;;
17618;SDS011;8928;51.678;6.074;2023-05-29T05:30:00;22.30;;;3.13;;
17618;SDS011;8928;51.678;6.074;2023-05-29T05:32:47;18.90;;;3.20;;
17618;SDS011;8928;51.678;6.074;2023-05-29T05:35:34;22.23;;;3.23;;
17618;SDS011;8928;51.678;6.074;2023-05-29T05:38:23;20.63;;;2.87;;
17618;SDS011;8928;51.678;6.074;2023-05-29T05:41:10;24.50;;;3.77;;
17618;SDS011;8928;51.678;6.074;2023-05-29T05:43:57;21.23;;;2.90;;
17618;SDS011;8928;51.678;6.074;2023-05-29T05:46:44;19.87;;;3.03;;
17618;SDS011;8928;51.678;6.074;2023-05-29T05:49:31;24.73;;;3.43;;
17618;SDS011;8928;51.678;6.074;2023-05-29T05:52:18;26.40;;;2.93;;
17618;SDS011;8928;51.678;6.074;2023-05-29T05:55:07;20.50;;;3.17;;
17618;SDS011;8928;51.678;6.074;2023-05-29T05:57:54;22.73;;;3.10;;
17618;SDS011;8928;51.678;6.074;2023-05-29T06:00:42;23.70;;;2.90;;
17618;SDS011;8928;51.678;6.074;2023-05-29T06:03:29;25.40;;;3.33;;
17618;SDS011;8928;51.678;6.074;2023-05-29T06:06:18;25.33;;;3.10;;
17618;SDS011;8928;51.678;6.074;2023-05-29T06:09:05;20.97;;;3.27;;
17618;SDS011;8928;51.678;6.074;2023-05-29T06:11:54;21.23;;;2.80;;
17618;SDS011;8928;51.678;6.074;2023-05-29T06:14:41;18.37;;;3.17;;
17618;SDS011;8928;51.678;6.074;2023-05-29T06:17:28;27.27;;;3.47;;
17618;SDS011;8928;51.678;6.074;2023-05-29T06:20:15;21.17;;;3.03;;
17618;SDS011;8928;51.678;6.074;2023-05-29T06:23:02;21.13;;;2.67;;
17618;SDS011;8928;51.678;6.074;2023-05-29T06:25:49;21.47;;;3.07;;
17618;SDS011;8928;51.678;6.074;2023-05-29T06:28:37;23.80;;;3.07;;
17618;SDS011;8928;51.678;6.074;2023-05-29T06:31:25;21.70;;;3.20;;
17618;SDS011;8928;51.678;6.074;2023-05-29T06:34:12;21.23;;;3.53;;
17618;SDS011;8928;51.678;6.074;2023-05-29T06:36:59;20.80;;;3.03;;
17618;SDS011;8928;51.678;6.074;2023-05-29T06:39:46;17.90;;;2.43;;
17618;SDS011;8928;51.678;6.074;2023-05-29T06:42:33;19.87;;;3.10;;
17618;SDS011;8928;51.678;6.074;2023-05-29T06:45:21;16.50;;;2.60;;
17618;SDS011;8928;51.678;6.074;2023-05-29T06:48:08;17.00;;;2.50;;
17618;SDS011;8928;51.678;6.074;2023-05-29T06:50:55;16.03;;;2.70;;
17618;SDS011;8928;51.678;6.074;2023-05-29T06:53:42;18.57;;;2.80;;
17618;SDS011;8928;51.678;6.074;2023-05-29T06:56:30;19.83;;;2.90;;
17618;SDS011;8928;51.678;6.074;2023-05-29T06:59:17;19.00;;;3.17;;
17618;SDS011;8928;51.678;6.074;2023-05-29T07:02:05;19.27;;;2.67;;
17618;SDS011;8928;51.678;6.074;2023-05-29T07:04:53;17.60;;;2.70;;
17618;SDS011;8928;51.678;6.074;2023-05-29T07:07:40;18.63;;;2.93;;
17618;SDS011;8928;51.678;6.074;2023-05-29T07:10:27;19.07;;;3.10;;
17618;SDS011;8928;51.678;6.074;2023-05-29T07:13:14;19.27;;;2.67;;
17618;SDS011;8928;51.678;6.074;2023-05-29T07:16:03;15.93;;;2.40;;
17618;SDS011;8928;51.678;6.074;2023-05-29T07:18:51;14.73;;;2.60;;
17618;SDS011;8928;51.678;6.074;2023-05-29T07:21:38;21.70;;;3.43;;
17618;SDS011;8928;51.678;6.074;2023-05-29T07:24:26;18.80;;;2.87;;
17618;SDS011;8928;51.678;6.074;2023-05-29T07:27:13;18.77;;;2.40;;
17618;SDS011;8928;51.678;6.074;2023-05-29T07:30:00;16.63;;;2.70;;
17618;SDS011;8928;51.678;6.074;2023-05-29T07:32:47;19.83;;;2.87;;
17618;SDS011;8928;51.678;6.074;2023-05-29T07:35:35;16.23;;;2.53;;
17618;SDS011;8928;51.678;6.074;2023-05-29T07:38:22;18.97;;;2.47;;
17618;SDS011;8928;51.678;6.074;2023-05-29T07:41:09;20.33;;;2.67;;
17618;SDS011;8928;51.678;6.074;2023-05-29T07:43:56;16.70;;;2.43;;
17618;SDS011;8928;51.678;6.074;2023-05-29T07:46:43;13.07;;;2.77;;
17618;SDS011;8928;51.678;6.074;2023-05-29T07:49:31;18.60;;;2.57;;
17618;SDS011;8928;51.678;6.074;2023-05-29T07:52:19;12.97;;;2.17;;
17618;SDS011;8928;51.678;6.074;2023-05-29T07:55:06;20.53;;;2.97;;
17618;SDS011;8928;51.678;6.074;2023-05-29T07:57:54;21.47;;;3.40;;
17618;SDS011;8928;51.678;6.074;2023-05-29T08:00:41;16.73;;;2.90;;
17618;SDS011;8928;51.678;6.074;2023-05-29T08:03:30;16.07;;;2.60;;
17618;SDS011;8928;51.678;6.074;2023-05-29T08:06:17;17.30;;;2.57;;
17618;SDS011;8928;51.678;6.074;2023-05-29T08:09:06;17.03;;;2.57;;
17618;SDS011;8928;51.678;6.074;2023-05-29T08:11:53;16.83;;;2.50;;
17618;SDS011;8928;51.678;6.074;2023-05-29T08:14:40;17.00;;;3.10;;
17618;SDS011;8928;51.678;6.074;2023-05-29T08:17:27;15.13;;;2.70;;
17618;SDS011;8928;51.678;6.074;2023-05-29T08:20:14;16.57;;;2.70;;
17618;SDS011;8928;51.678;6.074;2023-05-29T08:23:02;14.03;;;2.40;;
17618;SDS011;8928;51.678;6.074;2023-05-29T08:25:50;16.77;;;2.40;;
17618;SDS011;8928;51.678;6.074;2023-05-29T08:28:37;12.57;;;2.23;;
17618;SDS011;8928;51.678;6.074;2023-05-29T08:31:24;15.40;;;2.60;;
17618;SDS011;8928;51.678;6.074;2023-05-29T08:34:12;12.77;;;2.17;;
17618;SDS011;8928;51.678;6.074;2023-05-29T08:37:00;19.23;;;3.00;;
17618;SDS011;8928;51.678;6.074;2023-05-29T08:39:48;15.43;;;2.57;;
17618;SDS011;8928;51.678;6.074;2023-05-29T08:42:39;14.40;;;2.50;;
17618;SDS011;8928;51.678;6.074;2023-05-29T08:45:38;10.90;;;2.13;;
17618;SDS011;8928;51.678;6.074;2023-05-29T08:48:30;17.53;;;2.77;;
17618;SDS011;8928;51.678;6.074;2023-05-29T08:51:19;14.10;;;2.10;;
17618;SDS011;8928;51.678;6.074;2023-05-29T08:54:07;14.48;;;2.20;;
17618;SDS011;8928;51.678;6.074;2023-05-29T08:56:54;15.48;;;2.40;;
17618;SDS011;8928;51.678;6.074;2023-05-29T08:59:44;14.68;;;2.70;;
17618;SDS011;8928;51.678;6.074;2023-05-29T09:02:31;12.73;;;2.35;;
17618;SDS011;8928;51.678;6.074;2023-05-29T09:05:20;12.55;;;2.60;;
17618;SDS011;8928;51.678;6.074;2023-05-29T09:08:08;13.45;;;2.08;;
17618;SDS011;8928;51.678;6.074;2023-05-29T09:10:57;17.30;;;2.30;;
17618;SDS011;8928;51.678;6.074;2023-05-29T09:13:44;15.45;;;2.35;;
17618;SDS011;8928;51.678;6.074;2023-05-29T09:16:33;15.02;;;2.30;;
17618;SDS011;8928;51.678;6.074;2023-05-29T09:19:27;16.40;;;2.60;;
17618;SDS011;8928;51.678;6.074;2023-05-29T09:22:15;12.52;;;2.30;;
17618;SDS011;8928;51.678;6.074;2023-05-29T09:25:02;13.50;;;2.30;;
17618;SDS011;8928;51.678;6.074;2023-05-29T09:27:51;10.68;;;2.20;;
17618;SDS011;8928;51.678;6.074;2023-05-29T09:30:40;16.38;;;2.63;;
17618;SDS011;8928;51.678;6.074;2023-05-29T09:33:29;13.38;;;2.20;;
17618;SDS011;8928;51.678;6.074;2023-05-29T09:36:20;10.70;;;2.10;;
17618;SDS011;8928;51.678;6.074;2023-05-29T09:39:08;10.82;;;2.33;;
17618;SDS011;8928;51.678;6.074;2023-05-29T09:41:56;15.48;;;1.98;;
17618;SDS011;8928;51.678;6.074;2023-05-29T09:44:44;11.77;;;2.10;;
17618;SDS011;8928;51.678;6.074;2023-05-29T09:47:37;10.55;;;1.98;;
17618;SDS011;8928;51.678;6.074;2023-05-29T09:50:27;8.68;;;2.05;;
17618;SDS011;8928;51.678;6.074;2023-05-29T09:53:18;11.90;;;2.40;;
17618;SDS011;8928;51.678;6.074;2023-05-29T09:56:07;12.50;;;2.47;;
17618;SDS011;8928;51.678;6.074;2023-05-29T09:58:54;10.55;;;2.30;;
17618;SDS011;8928;51.678;6.074;2023-05-29T10:01:43;11.30;;;2.20;;
17618;SDS011;8928;51.678;6.074;2023-05-29T10:04:30;11.25;;;2.15;;
17618;SDS011;8928;51.678;6.074;2023-05-29T10:07:22;11.00;;;2.10;;
17618;SDS011;8928;51.678;6.074;2023-05-29T10:10:13;11.20;;;2.00;;
17618;SDS011;8928;51.678;6.074;2023-05-29T10:13:00;11.70;;;2.20;;
17618;SDS011;8928;51.678;6.074;2023-05-29T10:15:49;8.65;;;2.20;;
17618;SDS011;8928;51.678;6.074;2023-05-29T10:18:42;11.38;;;2.25;;
17618;SDS011;8928;51.678;6.074;2023-05-29T10:21:30;12.77;;;2.40;;
17618;SDS011;8928;51.678;6.074;2023-05-29T10:24:20;13.82;;;2.85;;
17618;SDS011;8928;51.678;6.074;2023-05-29T10:27:07;12.18;;;2.13;;
17618;SDS011;8928;51.678;6.074;2023-05-29T10:29:56;11.48;;;2.10;;
17618;SDS011;8928;51.678;6.074;2023-05-29T10:32:55;8.15;;;1.92;;
17618;SDS011;8928;51.678;6.074;2023-05-29T10:35:57;7.68;;;2.00;;
17618;SDS011;8928;51.678;6.074;2023-05-29T10:38:49;13.30;;;2.17;;
17618;SDS011;8928;51.678;6.074;2023-05-29T10:41:39;8.30;;;2.13;;
17618;SDS011;8928;51.678;6.074;2023-05-29T10:44:38;14.80;;;2.53;;
17618;SDS011;8928;51.678;6.074;2023-05-29T10:47:29;8.63;;;2.00;;
17618;SDS011;8928;51.678;6.074;2023-05-29T10:50:16;10.18;;;2.50;;
17618;SDS011;8928;51.678;6.074;2023-05-29T10:53:22;9.83;;;2.30;;
17618;SDS011;8928;51.678;6.074;2023-05-29T10:56:15;7.93;;;2.30;;
17618;SDS011;8928;51.678;6.074;2023-05-29T10:59:08;8.15;;;2.40;;
17618;SDS011;8928;51.678;6.074;2023-05-29T11:01:55;11.73;;;2.55;;
17618;SDS011;8928;51.678;6.074;2023-05-29T11:04:43;11.88;;;2.08;;
17618;SDS011;8928;51.678;6.074;2023-05-29T11:07:32;11.35;;;2.20;;
17618;SDS011;8928;51.678;6.074;2023-05-29T11:13:33;10.73;;;2.22;;
17618;SDS011;8928;51.678;6.074;2023-05-29T11:16:36;12.07;;;2.28;;
17618;SDS011;8928;51.678;6.074;2023-05-29T11:19:23;9.43;;;2.28;;
17618;SDS011;8928;51.678;6.074;2023-05-29T11:22:15;11.48;;;2.35;;
17618;SDS011;8928;51.678;6.074;2023-05-29T11:25:09;9.20;;;2.30;;
17618;SDS011;8928;51.678;6.074;2023-05-29T11:27:59;8.10;;;2.20;;
17618;SDS011;8928;51.678;6.074;2023-05-29T11:30:49;11.15;;;2.50;;
17618;SDS011;8928;51.678;6.074;2023-05-29T11:33:38;12.82;;;2.47;;
17618;SDS011;8928;51.678;6.074;2023-05-29T11:36:26;9.25;;;2.28;;
17618;SDS011;8928;51.678;6.074;2023-05-29T11:39:14;7.75;;;2.20;;
17618;SDS011;8928;51.678;6.074;2023-05-29T11:42:01;12.20;;;2.42;;
17618;SDS011;8928;51.678;6.074;2023-05-29T11:44:48;9.15;;;2.33;;
17618;SDS011;8928;51.678;6.074;2023-05-29T11:47:49;11.25;;;2.13;;
17618;SDS011;8928;51.678;6.074;2023-05-29T11:50:39;8.98;;;2.20;;
17618;SDS011;8928;51.678;6.074;2023-05-29T11:53:26;11.02;;;2.45;;
17618;SDS011;8928;51.678;6.074;2023-05-29T11:56:13;11.52;;;2.47;;
17618;SDS011;8928;51.678;6.074;2023-05-29T11:59:00;8.82;;;2.08;;
17618;SDS011;8928;51.678;6.074;2023-05-29T12:01:50;10.85;;;2.40;;
17618;SDS011;8928;51.678;6.074;2023-05-29T12:04:37;9.40;;;2.40;;
17618;SDS011;8928;51.678;6.074;2023-05-29T12:07:26;10.13;;;2.20;;
17618;SDS011;8928;51.678;6.074;2023-05-29T12:10:14;11.82;;;2.35;;
17618;SDS011;8928;51.678;6.074;2023-05-29T12:13:02;11.32;;;2.65;;
17618;SDS011;8928;51.678;6.074;2023-05-29T12:15:50;11.88;;;2.92;;
17618;SDS011;8928;51.678;6.074;2023-05-29T12:18:39;9.52;;;2.40;;
17618;SDS011;8928;51.678;6.074;2023-05-29T12:21:26;11.23;;;2.42;;
17618;SDS011;8928;51.678;6.074;2023-05-29T12:24:15;10.30;;;2.10;;
17618;SDS011;8928;51.678;6.074;2023-05-29T12:27:05;13.35;;;2.75;;
17618;SDS011;8928;51.678;6.074;2023-05-29T12:29:59;12.90;;;2.70;;
17618;SDS011;8928;51.678;6.074;2023-05-29T12:32:47;14.25;;;3.03;;
17618;SDS011;8928;51.678;6.074;2023-05-29T12:35:35;10.05;;;2.20;;
17618;SDS011;8928;51.678;6.074;2023-05-29T12:38:22;10.35;;;2.20;;
17618;SDS011;8928;51.678;6.074;2023-05-29T12:41:11;14.95;;;2.55;;
17618;SDS011;8928;51.678;6.074;2023-05-29T12:44:08;9.73;;;2.60;;
17618;SDS011;8928;51.678;6.074;2023-05-29T12:46:56;11.18;;;2.33;;
17618;SDS011;8928;51.678;6.074;2023-05-29T12:49:43;11.98;;;2.55;;
17618;SDS011;8928;51.678;6.074;2023-05-29T12:52:30;10.07;;;2.40;;
17618;SDS011;8928;51.678;6.074;2023-05-29T12:55:17;13.95;;;2.50;;
17618;SDS011;8928;51.678;6.074;2023-05-29T12:58:06;13.27;;;2.47;;
17618;SDS011;8928;51.678;6.074;2023-05-29T13:00:53;8.85;;;2.38;;
17618;SDS011;8928;51.678;6.074;2023-05-29T13:03:42;8.52;;;2.53;;
17618;SDS011;8928;51.678;6.074;2023-05-29T13:06:29;13.70;;;2.50;;
17618;SDS011;8928;51.678;6.074;2023-05-29T13:09:16;10.48;;;2.55;;
17618;SDS011;8928;51.678;6.074;2023-05-29T13:12:03;9.95;;;2.60;;
17618;SDS011;8928;51.678;6.074;2023-05-29T13:14:52;15.07;;;2.80;;
17618;SDS011;8928;51.678;6.074;2023-05-29T13:17:41;10.82;;;2.67;;
17618;SDS011;8928;51.678;6.074;2023-05-29T13:20:28;9.45;;;2.50;;
17618;SDS011;8928;51.678;6.074;2023-05-29T13:23:17;11.43;;;2.65;;
17618;SDS011;8928;51.678;6.074;2023-05-29T13:26:04;7.18;;;2.35;;
17618;SDS011;8928;51.678;6.074;2023-05-29T13:28:52;10.65;;;2.65;;
17618;SDS011;8928;51.678;6.074;2023-05-29T13:31:40;13.02;;;2.72;;
17618;SDS011;8928;51.678;6.074;2023-05-29T13:34:27;7.85;;;2.28;;
17618;SDS011;8928;51.678;6.074;2023-05-29T13:37:15;9.95;;;2.85;;
17618;SDS011;8928;51.678;6.074;2023-05-29T13:40:02;11.18;;;2.60;;
17618;SDS011;8928;51.678;6.074;2023-05-29T13:42:50;11.02;;;2.55;;
17618;SDS011;8928;51.678;6.074;2023-05-29T13:45:37;9.25;;;2.70;;
17618;SDS011;8928;51.678;6.074;2023-05-29T13:48:27;9.98;;;2.47;;
17618;SDS011;8928;51.678;6.074;2023-05-29T13:51:14;11.05;;;2.60;;
17618;SDS011;8928;51.678;6.074;2023-05-29T13:54:01;12.05;;;2.38;;
17618;SDS011;8928;51.678;6.074;2023-05-29T13:56:48;8.02;;;2.25;;
17618;SDS011;8928;51.678;6.074;2023-05-29T13:59:35;10.13;;;2.40;;
17618;SDS011;8928;51.678;6.074;2023-05-29T14:02:22;8.60;;;2.30;;
17618;SDS011;8928;51.678;6.074;2023-05-29T14:05:12;10.35;;;2.80;;
17618;SDS011;8928;51.678;6.074;2023-05-29T14:07:59;10.80;;;2.50;;
17618;SDS011;8928;51.678;6.074;2023-05-29T14:10:46;11.52;;;2.88;;
17618;SDS011;8928;51.678;6.074;2023-05-29T14:13:33;10.23;;;2.50;;
17618;SDS011;8928;51.678;6.074;2023-05-29T14:16:20;9.35;;;2.55;;
17618;SDS011;8928;51.678;6.074;2023-05-29T14:19:07;9.15;;;2.47;;
17618;SDS011;8928;51.678;6.074;2023-05-29T14:21:55;11.18;;;2.40;;
17618;SDS011;8928;51.678;6.074;2023-05-29T14:24:42;9.38;;;2.40;;
17618;SDS011;8928;51.678;6.074;2023-05-29T14:27:29;9.63;;;2.60;;
17618;SDS011;8928;51.678;6.074;2023-05-29T14:30:16;9.88;;;2.55;;
17618;SDS011;8928;51.678;6.074;2023-05-29T14:33:04;9.65;;;2.30;;
17618;SDS011;8928;51.678;6.074;2023-05-29T14:35:51;13.38;;;2.67;;
17618;SDS011;8928;51.678;6.074;2023-05-29T14:38:40;8.85;;;2.70;;
17618;SDS011;8928;51.678;6.074;2023-05-29T14:41:28;14.55;;;2.58;;
17618;SDS011;8928;51.678;6.074;2023-05-29T14:44:15;13.43;;;2.75;;
17618;SDS011;8928;51.678;6.074;2023-05-29T14:47:02;10.50;;;2.75;;
17618;SDS011;8928;51.678;6.074;2023-05-29T14:49:49;10.32;;;2.28;;
17618;SDS011;8928;51.678;6.074;2023-05-29T14:52:36;14.68;;;2.72;;
17618;SDS011;8928;51.678;6.074;2023-05-29T14:55:25;11.95;;;2.70;;
17618;SDS011;8928;51.678;6.074;2023-05-29T14:58:12;9.70;;;2.42;;
17618;SDS011;8928;51.678;6.074;2023-05-29T15:01:00;10.45;;;2.50;;
17618;SDS011;8928;51.678;6.074;2023-05-29T15:03:47;14.65;;;2.80;;
17618;SDS011;8928;51.678;6.074;2023-05-29T15:06:34;8.93;;;2.47;;
17618;SDS011;8928;51.678;6.074;2023-05-29T15:09:21;13.23;;;2.40;;
17618;SDS011;8928;51.678;6.074;2023-05-29T15:12:09;10.75;;;2.50;;
17618;SDS011;8928;51.678;6.074;2023-05-29T15:14:56;11.45;;;2.80;;
17618;SDS011;8928;51.678;6.074;2023-05-29T15:17:43;10.50;;;2.50;;
17618;SDS011;8928;51.678;6.074;2023-05-29T15:20:32;13.52;;;2.80;;
17618;SDS011;8928;51.678;6.074;2023-05-29T15:23:19;10.95;;;2.42;;
17618;SDS011;8928;51.678;6.074;2023-05-29T15:26:07;13.48;;;2.67;;
17618;SDS011;8928;51.678;6.074;2023-05-29T15:28:56;8.32;;;2.60;;
17618;SDS011;8928;51.678;6.074;2023-05-29T15:31:43;9.88;;;2.40;;
17618;SDS011;8928;51.678;6.074;2023-05-29T15:34:30;11.65;;;2.70;;
17618;SDS011;8928;51.678;6.074;2023-05-29T15:37:19;11.43;;;2.83;;
17618;SDS011;8928;51.678;6.074;2023-05-29T15:40:06;8.23;;;2.42;;
17618;SDS011;8928;51.678;6.074;2023-05-29T15:42:55;9.10;;;2.40;;
17618;SDS011;8928;51.678;6.074;2023-05-29T15:45:43;10.57;;;2.60;;
17618;SDS011;8928;51.678;6.074;2023-05-29T15:48:31;8.93;;;2.60;;
17618;SDS011;8928;51.678;6.074;2023-05-29T15:51:18;7.40;;;2.42;;
17618;SDS011;8928;51.678;6.074;2023-05-29T15:54:05;11.65;;;2.88;;
17618;SDS011;8928;51.678;6.074;2023-05-29T15:56:52;9.75;;;2.72;;
17618;SDS011;8928;51.678;6.074;2023-05-29T15:59:39;11.45;;;2.85;;
17618;SDS011;8928;51.678;6.074;2023-05-29T16:02:28;11.65;;;2.75;;
17618;SDS011;8928;51.678;6.074;2023-05-29T16:05:15;13.35;;;3.03;;
17618;SDS011;8928;51.678;6.074;2023-05-29T16:08:02;13.43;;;3.00;;
17618;SDS011;8928;51.678;6.074;2023-05-29T16:10:49;9.45;;;2.80;;
17618;SDS011;8928;51.678;6.074;2023-05-29T16:13:36;13.98;;;2.78;;
17618;SDS011;8928;51.678;6.074;2023-05-29T16:16:23;12.10;;;2.65;;
17618;SDS011;8928;51.678;6.074;2023-05-29T16:19:12;12.60;;;2.60;;
17618;SDS011;8928;51.678;6.074;2023-05-29T16:21:59;13.82;;;2.95;;
17618;SDS011;8928;51.678;6.074;2023-05-29T16:24:46;11.75;;;2.58;;
17618;SDS011;8928;51.678;6.074;2023-05-29T16:27:33;9.82;;;2.90;;
17618;SDS011;8928;51.678;6.074;2023-05-29T16:30:20;13.13;;;2.88;;
17618;SDS011;8928;51.678;6.074;2023-05-29T16:33:08;12.95;;;2.67;;
17618;SDS011;8928;51.678;6.074;2023-05-29T16:35:58;13.63;;;2.80;;
17618;SDS011;8928;51.678;6.074;2023-05-29T16:38:47;11.98;;;2.72;;
17618;SDS011;8928;51.678;6.074;2023-05-29T16:41:34;10.43;;;2.75;;
17618;SDS011;8928;51.678;6.074;2023-05-29T16:44:21;13.23;;;2.60;;
17618;SDS011;8928;51.678;6.074;2023-05-29T16:47:08;9.38;;;2.70;;
17618;SDS011;8928;51.678;6.074;2023-05-29T16:49:55;12.93;;;2.83;;
17618;SDS011;8928;51.678;6.074;2023-05-29T16:52:44;11.80;;;2.53;;
17618;SDS011;8928;51.678;6.074;2023-05-29T16:55:32;8.23;;;2.63;;
17618;SDS011;8928;51.678;6.074;2023-05-29T16:58:19;9.88;;;2.67;;
17618;SDS011;8928;51.678;6.074;2023-05-29T17:01:06;10.27;;;2.83;;